Time;durP1;ratioP1;P1;durP2;ratioP2;P2;SDS_P1;SDS_P2;PMS_P1;PMS_P2;Temp;Humidity;BMP_temperature;BMP_pressure;BME280_temperature;BME280_humidity;BME280_pressure;Samples;Min_cycle;Max_cycle;Signal;HPM_P1;HPM_P2
2022/01/10 00:01:02;;;;;;;43.00;22.50;;;;;;;;;;6242250;28;20095;-64
2022/01/10 00:04:05;;;;;;;45.97;22.13;;;;;;;;;;6242408;28;20041;-65
2022/01/10 00:07:08;;;;;;;42.08;22.13;;;;;;;;;;6241734;28;20096;-65
2022/01/10 00:10:14;;;;;;;44.40;22.80;;;;;;;;;;6243137;28;20107;-65
2022/01/10 00:13:17;;;;;;;42.65;21.70;;;;;;;;;;6242198;28;20429;-65
2022/01/10 00:16:21;;;;;;;44.35;21.92;;;;;;;;;;6241050;28;20488;-65
2022/01/10 00:19:24;;;;;;;44.28;22.90;;;;;;;;;;6242721;28;20049;-65
2022/01/10 00:22:27;;;;;;;46.00;23.98;;;;;;;;;;6241965;28;20518;-65
2022/01/10 00:25:30;;;;;;;39.58;22.25;;;;;;;;;;6241046;28;20534;-65
2022/01/10 00:28:33;;;;;;;42.30;21.73;;;;;;;;;;6242720;28;20148;-64
2022/01/10 00:31:38;;;;;;;40.50;21.70;;;;;;;;;;6241888;28;20502;-64
2022/01/10 00:34:41;;;;;;;42.83;22.48;;;;;;;;;;6242141;28;20060;-65
2022/01/10 00:37:45;;;;;;;44.78;23.08;;;;;;;;;;6245097;28;20080;-65
2022/01/10 00:40:50;;;;;;;42.50;22.05;;;;;;;;;;6247493;28;20611;-64
2022/01/10 00:43:56;;;;;;;43.13;22.20;;;;;;;;;;6246920;28;20476;-64
2022/01/10 00:47:02;;;;;;;43.25;23.30;;;;;;;;;;6245741;28;20041;-64
2022/01/10 00:50:06;;;;;;;47.08;23.40;;;;;;;;;;6247507;28;20038;-64
2022/01/10 00:53:11;;;;;;;45.90;22.52;;;;;;;;;;6245374;28;20068;-65
2022/01/10 00:56:14;;;;;;;44.55;22.80;;;;;;;;;;6245186;28;20041;-64
2022/01/10 00:59:17;;;;;;;51.47;24.70;;;;;;;;;;6247096;28;20120;-64
2022/01/10 01:02:26;;;;;;;44.67;23.27;;;;;;;;;;6247065;28;20053;-64
2022/01/10 01:05:30;;;;;;;42.63;22.30;;;;;;;;;;6245135;28;20371;-64
2022/01/10 01:08:35;;;;;;;43.78;23.38;;;;;;;;;;6245250;28;20046;-64
2022/01/10 01:12:07;;;;;;;45.63;22.17;;;;;;;;;;6247000;28;20463;-64
2022/01/10 01:15:20;;;;;;;49.45;24.10;;;;;;;;;;6246409;28;20403;-64
2022/01/10 01:18:56;;;;;;;48.03;21.67;;;;;;;;;;6246496;28;20385;-64
2022/01/10 01:25:14;;;;;;;47.08;22.20;;;;;;;;;;6246333;28;20042;-64
2022/01/10 01:28:18;;;;;;;46.13;24.13;;;;;;;;;;6244944;28;20434;-65
2022/01/10 01:31:20;;;;;;;45.15;23.70;;;;;;;;;;6244411;28;20049;-64
2022/01/10 01:34:25;;;;;;;46.25;22.88;;;;;;;;;;6244760;28;20041;-65
2022/01/10 01:37:28;;;;;;;49.88;24.67;;;;;;;;;;6246233;28;20127;-65
2022/01/10 01:40:32;;;;;;;49.20;23.10;;;;;;;;;;6245453;28;20115;-65
2022/01/10 01:43:40;;;;;;;47.70;23.08;;;;;;;;;;6245547;28;20056;-64
2022/01/10 01:46:44;;;;;;;45.80;23.35;;;;;;;;;;6244342;28;20052;-65
2022/01/10 01:49:49;;;;;;;46.80;23.05;;;;;;;;;;6244179;28;20511;-65
2022/01/10 01:52:52;;;;;;;46.78;24.10;;;;;;;;;;6243941;28;20408;-66
2022/01/10 01:55:58;;;;;;;49.35;24.30;;;;;;;;;;6244334;28;20041;-64
2022/01/10 01:59:01;;;;;;;48.20;24.25;;;;;;;;;;6244603;28;20049;-65
2022/01/10 02:02:04;;;;;;;48.15;23.17;;;;;;;;;;6243744;28;20195;-64
2022/01/10 02:05:10;;;;;;;46.70;24.10;;;;;;;;;;6243857;28;20316;-64
2022/01/10 02:08:13;;;;;;;49.92;25.27;;;;;;;;;;6244563;28;20048;-64
2022/01/10 02:11:19;;;;;;;48.58;23.60;;;;;;;;;;6243763;28;20041;-65
2022/01/10 02:14:22;;;;;;;49.30;25.67;;;;;;;;;;6243542;28;20041;-65
2022/01/10 02:17:34;;;;;;;53.80;26.20;;;;;;;;;;6243723;28;20072;-64
2022/01/10 02:20:46;;;;;;;53.05;26.60;;;;;;;;;;6244116;28;20061;-64
2022/01/10 02:23:51;;;;;;;48.28;25.60;;;;;;;;;;6243376;28;20050;-65
2022/01/10 02:26:59;;;;;;;49.03;24.45;;;;;;;;;;6243233;28;20503;-64
2022/01/10 02:30:03;;;;;;;49.97;24.63;;;;;;;;;;6245142;28;20057;-64
2022/01/10 02:33:07;;;;;;;50.88;24.70;;;;;;;;;;6243391;28;20049;-65
2022/01/10 02:36:18;;;;;;;47.22;24.17;;;;;;;;;;6242971;28;20057;-65
2022/01/10 02:39:21;;;;;;;52.42;25.77;;;;;;;;;;6243349;28;20049;-64
2022/01/10 02:42:24;;;;;;;50.78;25.02;;;;;;;;;;6244653;28;20503;-64
2022/01/10 02:45:28;;;;;;;48.13;24.38;;;;;;;;;;6242924;28;20068;-64
2022/01/10 02:48:31;;;;;;;52.65;26.77;;;;;;;;;;6243066;28;20050;-64
2022/01/10 02:51:35;;;;;;;49.65;25.33;;;;;;;;;;6243607;28;20045;-65
2022/01/10 02:54:38;;;;;;;47.80;24.50;;;;;;;;;;6242697;28;20095;-64
2022/01/10 02:57:49;;;;;;;47.80;25.15;;;;;;;;;;6242301;28;20444;-65
2022/01/10 03:00:52;;;;;;;49.15;24.55;;;;;;;;;;6242094;28;20107;-64
2022/01/10 03:03:55;;;;;;;52.80;25.70;;;;;;;;;;6244236;28;20045;-64
2022/01/10 03:07:03;;;;;;;51.25;26.90;;;;;;;;;;6242694;28;20057;-65
2022/01/10 03:10:10;;;;;;;45.95;23.60;;;;;;;;;;6242622;28;20049;-64
2022/01/10 03:13:14;;;;;;;51.60;25.27;;;;;;;;;;6244205;28;20049;-64
2022/01/10 03:16:17;;;;;;;49.05;24.85;;;;;;;;;;6242101;28;20164;-65
2022/01/10 03:19:20;;;;;;;48.20;25.63;;;;;;;;;;6243335;28;20492;-64
2022/01/10 03:22:26;;;;;;;52.38;25.65;;;;;;;;;;6242248;28;20045;-65
2022/01/10 03:25:29;;;;;;;53.05;25.92;;;;;;;;;;6243730;28;20052;-64
2022/01/10 03:28:35;;;;;;;;;;;;;;;;;;6242343;28;20068;-63
2022/01/10 03:31:40;;;;;;;51.10;25.42;;;;;;;;;;6241847;28;19928;-63
2022/01/10 03:34:43;;;;;;;51.97;25.10;;;;;;;;;;6243763;28;20045;-63
2022/01/10 03:37:49;;;;;;;47.17;26.20;;;;;;;;;;6241737;28;20488;-63
2022/01/10 03:40:52;;;;;;;55.40;26.92;;;;;;;;;;6241223;28;20507;-63
2022/01/10 03:43:58;;;;;;;;;;;;;;;;;;6242372;28;20045;-63
2022/01/10 03:47:02;;;;;;;52.22;26.50;;;;;;;;;;6241777;28;20074;-63
2022/01/10 03:50:08;;;;;;;52.40;26.15;;;;;;;;;;6243228;28;20042;-63
2022/01/10 03:53:16;;;;;;;49.13;26.00;;;;;;;;;;6241528;28;20053;-64
2022/01/10 03:56:20;;;;;;;56.87;27.80;;;;;;;;;;6242220;28;20056;-64
2022/01/10 03:59:23;;;;;;;55.67;27.58;;;;;;;;;;6241287;28;20037;-64
2022/01/10 04:02:29;;;;;;;49.05;26.38;;;;;;;;;;6241107;28;20049;-64
2022/01/10 04:05:32;;;;;;;;;;;;;;;;;;6242134;28;20049;-62
2022/01/10 04:08:36;;;;;;;58.42;29.63;;;;;;;;;;6241565;28;19921;-63
2022/01/10 04:11:40;;;;;;;57.45;27.75;;;;;;;;;;6241625;28;20192;-65
2022/01/10 04:14:43;;;;;;;57.97;28.13;;;;;;;;;;6240917;28;20424;-65
2022/01/10 04:17:55;;;;;;;58.50;30.60;;;;;;;;;;6241598;28;20046;-63
2022/01/10 04:20:59;;;;;;;57.05;29.13;;;;;;;;;;6240928;28;20447;-63
2022/01/10 04:24:03;;;;;;;56.08;28.63;;;;;;;;;;6240838;28;20053;-63
2022/01/10 04:27:07;;;;;;;56.83;29.05;;;;;;;;;;6241371;28;20046;-63
2022/01/10 04:30:12;;;;;;;54.47;28.70;;;;;;;;;;6242501;28;20057;-63
2022/01/10 04:33:19;;;;;;;53.25;28.33;;;;;;;;;;6240648;28;20057;-64
2022/01/10 04:36:23;;;;;;;51.90;27.65;;;;;;;;;;6240692;28;20045;-63
2022/01/10 04:39:28;;;;;;;54.13;28.80;;;;;;;;;;6242849;28;20046;-63
2022/01/10 04:42:31;;;;;;;54.70;28.80;;;;;;;;;;6241960;28;20049;-63
2022/01/10 04:45:37;;;;;;;55.53;28.27;;;;;;;;;;6240529;28;20397;-62
2022/01/10 04:48:40;;;;;;;58.42;28.38;;;;;;;;;;6241017;28;20051;-63
2022/01/10 04:51:43;;;;;;;51.20;27.80;;;;;;;;;;6240848;28;20053;-64
2022/01/10 04:54:47;;;;;;;64.78;31.42;;;;;;;;;;6240377;28;20045;-63
2022/01/10 04:57:50;;;;;;;68.32;32.25;;;;;;;;;;6240755;28;20053;-63
2022/01/10 05:00:55;;;;;;;71.25;33.17;;;;;;;;;;6240983;28;20049;-63
2022/01/10 05:04:01;;;;;;;65.03;32.80;;;;;;;;;;6240349;28;20054;-63
2022/01/10 05:07:04;;;;;;;63.78;32.88;;;;;;;;;;6240628;28;20104;-63
2022/01/10 05:10:10;;;;;;;66.30;32.05;;;;;;;;;;6240800;28;20041;-63
2022/01/10 05:13:15;;;;;;;58.35;31.15;;;;;;;;;;6240576;28;20048;-64
2022/01/10 05:16:19;;;;;;;61.92;31.10;;;;;;;;;;6240113;28;20052;-63
2022/01/10 05:19:22;;;;;;;60.30;29.55;;;;;;;;;;6240532;28;20045;-63
2022/01/10 05:22:25;;;;;;;56.83;28.92;;;;;;;;;;6242283;28;20052;-64
2022/01/10 05:25:36;;;;;;;56.55;29.40;;;;;;;;;;6244708;28;20446;-64
2022/01/10 05:28:39;;;;;;;51.60;26.20;;;;;;;;;;6244673;28;20053;-63
2022/01/10 05:31:43;;;;;;;53.60;28.17;;;;;;;;;;6245185;28;20061;-63
2022/01/10 05:35:02;;;;;;;52.17;27.27;;;;;;;;;;6245016;28;20058;-65
2022/01/10 05:38:08;;;;;;;53.63;25.43;;;;;;;;;;6246109;28;20056;-63
2022/01/10 05:41:12;;;;;;;49.35;24.50;;;;;;;;;;6245598;28;20057;-63
2022/01/10 05:44:16;;;;;;;50.33;26.38;;;;;;;;;;6244987;28;20453;-62
2022/01/10 05:47:19;;;;;;;53.47;27.13;;;;;;;;;;6244221;28;20103;-65
2022/01/10 05:50:34;;;;;;;53.35;27.20;;;;;;;;;;6244209;28;20049;-62
2022/01/10 05:53:41;;;;;;;52.15;26.67;;;;;;;;;;6244278;28;20041;-63
2022/01/10 05:56:46;;;;;;;51.28;26.42;;;;;;;;;;6244366;28;20064;-63
2022/01/10 05:59:49;;;;;;;56.42;27.45;;;;;;;;;;6245227;28;20050;-63
2022/01/10 06:02:52;;;;;;;51.72;27.75;;;;;;;;;;6243808;28;20188;-63
2022/01/10 06:06:09;;;;;;;53.22;26.35;;;;;;;;;;6244307;28;20041;-63
2022/01/10 06:09:13;;;;;;;58.30;27.70;;;;;;;;;;6243885;28;20496;-63
2022/01/10 06:12:19;;;;;;;56.53;27.40;;;;;;;;;;6243587;28;20053;-63
2022/01/10 06:15:22;;;;;;;53.97;28.58;;;;;;;;;;6243663;28;20041;-63
2022/01/10 06:18:26;;;;;;;54.47;27.55;;;;;;;;;;6243766;28;20045;-63
2022/01/10 06:21:29;;;;;;;53.70;27.33;;;;;;;;;;6243569;28;20049;-63
2022/01/10 06:24:34;;;;;;;51.78;26.38;;;;;;;;;;6243391;28;20064;-63
2022/01/10 06:27:39;;;;;;;51.72;26.38;;;;;;;;;;6243788;28;20072;-63
2022/01/10 06:30:42;;;;;;;58.13;28.05;;;;;;;;;;6243222;28;20500;-63
2022/01/10 06:33:45;;;;;;;55.95;27.50;;;;;;;;;;6243322;28;20129;-63
2022/01/10 06:36:49;;;;;;;55.28;27.98;;;;;;;;;;6244629;28;20045;-63
2022/01/10 06:39:53;;;;;;;51.15;25.30;;;;;;;;;;6243235;28;20522;-65
2022/01/10 06:42:57;;;;;;;56.97;27.45;;;;;;;;;;6242675;28;20049;-65
2022/01/10 06:46:03;;;;;;;58.20;28.50;;;;;;;;;;6242802;28;20088;-64
2022/01/10 06:49:07;;;;;;;54.67;27.77;;;;;;;;;;6243281;28;20045;-64
2022/01/10 06:52:12;;;;;;;50.33;26.20;;;;;;;;;;6242989;28;20053;-65
2022/01/10 06:55:17;;;;;;;56.38;27.67;;;;;;;;;;6242423;28;20286;-64
2022/01/10 06:58:22;;;;;;;49.05;26.40;;;;;;;;;;6242921;28;20037;-65
2022/01/10 07:01:25;;;;;;;53.63;27.35;;;;;;;;;;6242696;28;20068;-65
2022/01/10 07:04:28;;;;;;;53.05;27.38;;;;;;;;;;6242369;28;20045;-64
2022/01/10 07:07:34;;;;;;;58.78;29.67;;;;;;;;;;6242330;28;20511;-65
2022/01/10 07:10:46;;;;;;;58.60;28.02;;;;;;;;;;6242798;28;20127;-64
2022/01/10 07:13:52;;;;;;;56.63;27.98;;;;;;;;;;6242566;28;20476;-65
2022/01/10 07:16:56;;;;;;;57.03;27.92;;;;;;;;;;6241924;28;20107;-64
2022/01/10 07:20:00;;;;;;;56.72;29.98;;;;;;;;;;6242352;28;20041;-64
2022/01/10 07:23:09;;;;;;;58.70;29.98;;;;;;;;;;6242142;28;20516;-65
2022/01/10 07:26:12;;;;;;;58.30;28.83;;;;;;;;;;6243093;28;20046;-64
2022/01/10 07:29:16;;;;;;;56.78;29.30;;;;;;;;;;6241719;28;20053;-64
2022/01/10 07:32:21;;;;;;;57.42;29.67;;;;;;;;;;6242251;28;20052;-64
2022/01/10 07:35:24;;;;;;;59.42;31.63;;;;;;;;;;6241641;28;20064;-64
2022/01/10 07:38:27;;;;;;;56.45;29.08;;;;;;;;;;6241506;28;20060;-65
2022/01/10 07:41:30;;;;;;;55.72;29.08;;;;;;;;;;6241754;28;20065;-64
2022/01/10 07:44:34;;;;;;;61.30;29.63;;;;;;;;;;6241236;28;20076;-65
2022/01/10 07:47:37;;;;;;;55.58;28.75;;;;;;;;;;6241407;28;20255;-64
2022/01/10 07:50:42;;;;;;;61.13;29.33;;;;;;;;;;6243170;28;20049;-64
2022/01/10 07:53:45;;;;;;;60.90;29.75;;;;;;;;;;6242839;28;20041;-65
2022/01/10 07:56:48;;;;;;;56.38;30.92;;;;;;;;;;6243024;28;20057;-64
2022/01/10 07:59:54;;;;;;;62.07;29.50;;;;;;;;;;6242402;28;20042;-65
2022/01/10 08:02:57;;;;;;;60.58;31.33;;;;;;;;;;6241765;28;20287;-64
2022/01/10 08:06:03;;;;;;;58.43;28.87;;;;;;;;;;6241231;28;20439;-65
2022/01/10 08:09:08;;;;;;;61.28;30.65;;;;;;;;;;6242224;28;20392;-64
2022/01/10 08:12:11;;;;;;;67.43;32.83;;;;;;;;;;6241229;28;20346;-64
2022/01/10 08:15:15;;;;;;;61.33;30.27;;;;;;;;;;6241129;28;20057;-65
2022/01/10 08:18:18;;;;;;;58.65;29.38;;;;;;;;;;6242243;28;20073;-64
2022/01/10 08:21:21;;;;;;;60.78;31.20;;;;;;;;;;6240599;28;20492;-64
2022/01/10 08:24:24;;;;;;;63.75;29.65;;;;;;;;;;6242427;28;20120;-64
2022/01/10 08:27:28;;;;;;;57.85;29.98;;;;;;;;;;6241064;28;20049;-64
2022/01/10 08:30:32;;;;;;;58.92;27.83;;;;;;;;;;6240623;28;20048;-64
2022/01/10 08:33:35;;;;;;;51.60;27.60;;;;;;;;;;6240850;28;20038;-65
2022/01/10 08:36:38;;;;;;;53.97;25.98;;;;;;;;;;6242253;28;20124;-65
2022/01/10 08:39:41;;;;;;;54.17;29.13;;;;;;;;;;6242105;28;20052;-63
2022/01/10 08:42:45;;;;;;;50.70;24.77;;;;;;;;;;6240453;28;20255;-64
2022/01/10 08:45:49;;;;;;;50.65;24.88;;;;;;;;;;6240942;28;20496;-64
2022/01/10 08:48:54;;;;;;;49.67;24.13;;;;;;;;;;6241919;28;20476;-64
2022/01/10 08:52:00;;;;;;;48.95;23.95;;;;;;;;;;6240395;28;20053;-65
2022/01/10 08:55:03;;;;;;;39.20;21.00;;;;;;;;;;6242303;28;20041;-65
2022/01/10 08:58:09;;;;;;;40.63;21.80;;;;;;;;;;6243498;28;20054;-65
2022/01/10 09:01:15;;;;;;;40.13;19.60;;;;;;;;;;6245759;28;20503;-64
2022/01/10 09:04:19;;;;;;;30.75;15.13;;;;;;;;;;6246605;28;20100;-64
2022/01/10 09:07:22;;;;;;;44.40;19.27;;;;;;;;;;6246754;28;20048;-65
2022/01/10 09:10:25;;;;;;;33.08;17.55;;;;;;;;;;6246473;28;20053;-64
2022/01/10 09:13:34;;;;;;;35.28;18.55;;;;;;;;;;6246280;28;20498;-64
2022/01/10 09:16:39;;;;;;;29.27;15.27;;;;;;;;;;6246764;28;20047;-64
2022/01/10 09:19:42;;;;;;;30.33;15.77;;;;;;;;;;6244956;28;20054;-64
2022/01/10 09:22:45;;;;;;;32.58;16.52;;;;;;;;;;6246235;28;20049;-64
2022/01/10 09:25:50;;;;;;;34.10;17.40;;;;;;;;;;6246218;28;20049;-64
2022/01/10 09:28:53;;;;;;;31.77;17.00;;;;;;;;;;6246287;28;20045;-65
2022/01/10 09:31:58;;;;;;;38.50;17.17;;;;;;;;;;6246296;28;20050;-64
2022/01/10 09:35:03;;;;;;;34.33;17.13;;;;;;;;;;6245849;28;20057;-63
2022/01/10 09:38:06;;;;;;;35.33;16.42;;;;;;;;;;6246310;28;20045;-65
2022/01/10 09:41:09;;;;;;;32.72;16.50;;;;;;;;;;6245506;28;20526;-64
2022/01/10 09:44:13;;;;;;;34.95;17.10;;;;;;;;;;6245958;28;20048;-63
2022/01/10 09:47:17;;;;;;;32.70;16.88;;;;;;;;;;6245798;28;20041;-64
2022/01/10 09:50:20;;;;;;;30.60;17.08;;;;;;;;;;6245705;28;20047;-63
2022/01/10 09:53:25;;;;;;;30.50;16.00;;;;;;;;;;6245756;28;20099;-64
2022/01/10 09:56:29;;;;;;;31.23;16.95;;;;;;;;;;6243783;28;20045;-64
2022/01/10 09:59:32;;;;;;;36.63;16.60;;;;;;;;;;6245804;28;20163;-65
2022/01/10 10:02:37;;;;;;;32.40;17.35;;;;;;;;;;6244081;28;20064;-64
2022/01/10 10:05:42;;;;;;;28.52;14.93;;;;;;;;;;6245217;28;20091;-65
2022/01/10 10:08:46;;;;;;;27.02;14.25;;;;;;;;;;6245188;28;20431;-64
2022/01/10 10:11:49;;;;;;;30.13;15.70;;;;;;;;;;6243865;28;20049;-64
2022/01/10 10:14:52;;;;;;;29.95;15.30;;;;;;;;;;6243811;28;20054;-64
2022/01/10 10:17:56;;;;;;;24.58;12.68;;;;;;;;;;6244788;28;20052;-63
2022/01/10 10:21:00;;;;;;;28.88;15.00;;;;;;;;;;6243825;28;20041;-64
2022/01/10 10:24:06;;;;;;;28.13;13.23;;;;;;;;;;6243602;28;20491;-64
2022/01/10 10:27:09;;;;;;;26.23;12.38;;;;;;;;;;6244317;28;20388;-64
2022/01/10 10:30:13;;;;;;;22.63;11.57;;;;;;;;;;6243837;28;20045;-64
2022/01/10 10:33:18;;;;;;;25.23;11.20;;;;;;;;;;6244662;28;20045;-63
2022/01/10 10:36:22;;;;;;;23.73;11.30;;;;;;;;;;6244368;28;20052;-63
2022/01/10 10:39:26;;;;;;;24.00;11.60;;;;;;;;;;6244435;28;20052;-64
2022/01/10 10:42:29;;;;;;;20.95;10.65;;;;;;;;;;6244048;28;20412;-63
2022/01/10 10:45:32;;;;;;;23.50;11.73;;;;;;;;;;6242952;28;20539;-64
2022/01/10 10:48:38;;;;;;;21.52;12.02;;;;;;;;;;6243977;28;20053;-63
2022/01/10 10:51:41;;;;;;;26.33;12.63;;;;;;;;;;6243413;28;20099;-63
2022/01/10 10:54:46;;;;;;;26.42;13.00;;;;;;;;;;6242702;28;20056;-63
2022/01/10 10:57:49;;;;;;;25.27;12.23;;;;;;;;;;6242901;28;20171;-62
2022/01/10 11:00:53;;;;;;;28.85;13.73;;;;;;;;;;6244347;28;20041;-66
2022/01/10 11:03:58;;;;;;;19.85;10.95;;;;;;;;;;6244314;28;20629;-64
2022/01/10 11:07:01;;;;;;;21.13;10.68;;;;;;;;;;6244138;28;20057;-64
2022/01/10 11:10:05;;;;;;;18.73;9.77;;;;;;;;;;6243583;28;20069;-63
2022/01/10 11:13:09;;;;;;;19.50;10.27;;;;;;;;;;6242703;28;20381;-64
2022/01/10 11:16:12;;;;;;;19.70;9.88;;;;;;;;;;6243756;28;20049;-64
2022/01/10 11:19:21;;;;;;;18.75;9.02;;;;;;;;;;6242745;28;20092;-64
2022/01/10 11:22:24;;;;;;;20.65;9.48;;;;;;;;;;6243976;28;20421;-64
2022/01/10 11:25:29;;;;;;;14.70;7.70;;;;;;;;;;6241980;28;20053;-64
2022/01/10 11:28:31;;;;;;;18.10;8.68;;;;;;;;;;6243361;28;20072;-65
2022/01/10 11:31:35;;;;;;;13.73;8.05;;;;;;;;;;6243023;28;20510;-64
2022/01/10 11:34:40;;;;;;;19.02;7.65;;;;;;;;;;6243788;28;20056;-64
2022/01/10 11:37:43;;;;;;;12.80;6.72;;;;;;;;;;6241884;28;20049;-64
2022/01/10 11:40:47;;;;;;;12.98;7.10;;;;;;;;;;6242623;28;20057;-64
2022/01/10 11:43:53;;;;;;;15.38;7.60;;;;;;;;;;6242012;28;20050;-64
2022/01/10 11:46:58;;;;;;;16.30;7.68;;;;;;;;;;6243498;28;20108;-63
2022/01/10 11:50:16;;;;;;;16.38;7.85;;;;;;;;;;6243049;28;20050;-63
2022/01/10 11:53:21;;;;;;;17.23;7.05;;;;;;;;;;6242376;28;20547;-65
2022/01/10 11:56:25;;;;;;;13.65;6.10;;;;;;;;;;6243197;28;20041;-64
2022/01/10 11:59:29;;;;;;;10.15;5.45;;;;;;;;;;6241783;28;20073;-64
2022/01/10 12:02:32;;;;;;;9.40;5.00;;;;;;;;;;6242360;28;20046;-65
2022/01/10 12:05:35;;;;;;;8.55;4.68;;;;;;;;;;6241526;28;20043;-65
2022/01/10 12:08:39;;;;;;;9.63;4.88;;;;;;;;;;6242583;28;20045;-65
2022/01/10 12:11:45;;;;;;;9.73;4.90;;;;;;;;;;6241215;28;20506;-65
2022/01/10 12:14:48;;;;;;;12.93;5.38;;;;;;;;;;6242243;28;20388;-64
2022/01/10 12:17:53;;;;;;;10.68;5.30;;;;;;;;;;6242717;28;20045;-66
2022/01/10 12:20:56;;;;;;;9.90;4.97;;;;;;;;;;6240950;28;20049;-63
2022/01/10 12:24:04;;;;;;;8.93;4.90;;;;;;;;;;6240666;28;20042;-66
2022/01/10 12:27:07;;;;;;;;;;;;;;;;;;6242952;28;20412;-63
2022/01/10 12:30:11;;;;;;;12.77;4.55;;;;;;;;;;6242274;28;20058;-63
2022/01/10 12:33:14;;;;;;;10.55;5.20;;;;;;;;;;6240818;28;20064;-63
2022/01/10 12:36:16;;;;;;;10.60;4.82;;;;;;;;;;6240829;28;20045;-64
2022/01/10 12:39:26;;;;;;;16.92;6.05;;;;;;;;;;6242403;28;20049;-66
2022/01/10 12:42:29;;;;;;;11.18;5.80;;;;;;;;;;6242029;28;20084;-64
2022/01/10 12:45:33;;;;;;;12.50;6.18;;;;;;;;;;6241763;28;20393;-64
2022/01/10 12:48:38;;;;;;;13.07;7.57;;;;;;;;;;6242230;28;20103;-64
2022/01/10 12:51:46;;;;;;;10.85;6.05;;;;;;;;;;6242001;28;20053;-64
2022/01/10 12:54:50;;;;;;;14.40;7.03;;;;;;;;;;6241877;28;20496;-63
2022/01/10 12:57:54;;;;;;;13.98;6.70;;;;;;;;;;6242015;28;20146;-65
2022/01/10 13:00:56;;;;;;;14.45;6.60;;;;;;;;;;6240526;28;20416;-65
2022/01/10 13:04:01;;;;;;;13.05;7.63;;;;;;;;;;6240527;28;20373;-63
2022/01/10 13:07:05;;;;;;;13.15;6.55;;;;;;;;;;6241276;28;20408;-63
2022/01/10 13:10:34;;;;;;;13.20;6.43;;;;;;;;;;6241821;28;20045;-64
2022/01/10 13:13:39;;;;;;;14.55;7.00;;;;;;;;;;6240333;28;20056;-64
2022/01/10 13:16:42;;;;;;;12.32;6.68;;;;;;;;;;6241723;28;20052;-65
2022/01/10 13:19:47;;;;;;;14.65;6.43;;;;;;;;;;6240032;28;20057;-65
2022/01/10 13:22:57;;;;;;;11.60;6.38;;;;;;;;;;6240436;28;20056;-65
2022/01/10 13:26:12;;;;;;;13.45;6.50;;;;;;;;;;6241402;28;20049;-64
2022/01/10 13:29:30;;;;;;;18.55;9.63;;;;;;;;;;6241623;28;20060;-63
2022/01/10 13:32:34;;;;;;;13.75;7.20;;;;;;;;;;6241321;28;20052;-64
2022/01/10 13:35:40;;;;;;;22.65;6.50;;;;;;;;;;6241786;28;20049;-64
2022/01/10 13:38:42;;;;;;;11.60;6.28;;;;;;;;;;6241414;28;20045;-65
2022/01/10 13:42:00;;;;;;;10.82;6.00;;;;;;;;;;6240731;28;20068;-65
2022/01/10 13:45:03;;;;;;;13.18;7.18;;;;;;;;;;6245540;28;20124;-65
2022/01/10 13:48:11;;;;;;;11.45;5.72;;;;;;;;;;6245722;28;20389;-65
2022/01/10 13:51:21;;;;;;;14.30;6.20;;;;;;;;;;6245879;28;20047;-65
2022/01/10 13:54:29;;;;;;;11.63;5.40;;;;;;;;;;6244125;28;20037;-65
2022/01/10 13:57:36;;;;;;;12.10;5.38;;;;;;;;;;6245901;28;20049;-65
2022/01/10 14:00:40;;;;;;;11.30;5.60;;;;;;;;;;6243966;28;20455;-65
2022/01/10 14:03:43;;;;;;;10.55;5.00;;;;;;;;;;6245231;28;20056;-64
2022/01/10 14:06:46;;;;;;;19.30;6.50;;;;;;;;;;6245410;28;20046;-64
2022/01/10 14:09:49;;;;;;;23.77;6.40;;;;;;;;;;6244297;28;20061;-65
2022/01/10 14:12:55;;;;;;;14.10;4.75;;;;;;;;;;6244001;28;20053;-65
2022/01/10 14:15:59;;;;;;;14.75;5.03;;;;;;;;;;6244751;28;20049;-65
2022/01/10 14:19:05;;;;;;;18.70;5.22;;;;;;;;;;6244054;28;20049;-65
2022/01/10 14:22:08;;;;;;;14.40;5.20;;;;;;;;;;6243328;28;20047;-66
2022/01/10 14:25:15;;;;;;;12.10;4.87;;;;;;;;;;6244142;28;20045;-65
2022/01/10 14:28:20;;;;;;;10.30;4.22;;;;;;;;;;6244988;28;20041;-65
2022/01/10 14:31:24;;;;;;;15.55;6.45;;;;;;;;;;6244783;28;20056;-65
2022/01/10 14:34:27;;;;;;;9.50;4.10;;;;;;;;;;6244738;28;20176;-65
2022/01/10 14:37:31;;;;;;;11.02;4.05;;;;;;;;;;6244277;28;20045;-64
2022/01/10 14:40:33;;;;;;;9.43;3.90;;;;;;;;;;6244771;28;20058;-64
2022/01/10 14:43:38;;;;;;;14.68;4.25;;;;;;;;;;6244489;28;20128;-65
2022/01/10 14:46:41;;;;;;;11.82;4.47;;;;;;;;;;6243904;28;20037;-65
2022/01/10 14:49:44;;;;;;;8.98;4.43;;;;;;;;;;6244463;28;20484;-65
2022/01/10 14:52:48;;;;;;;8.60;4.38;;;;;;;;;;6242944;28;20042;-65
2022/01/10 14:55:54;;;;;;;8.65;4.38;;;;;;;;;;6241456;28;20061;-65
2022/01/10 14:58:59;;;;;;;9.63;4.20;;;;;;;;;;6243968;28;20065;-65
2022/01/10 15:02:02;;;;;;;11.40;4.80;;;;;;;;;;6244123;28;20091;-65
2022/01/10 15:05:06;;;;;;;15.73;4.90;;;;;;;;;;6242691;28;20049;-65
2022/01/10 15:08:10;;;;;;;19.30;8.15;;;;;;;;;;6243481;28;20056;-64
2022/01/10 15:11:13;;;;;;;17.85;8.50;;;;;;;;;;6244130;28;20077;-64
2022/01/10 15:14:17;;;;;;;20.52;10.45;;;;;;;;;;6243781;28;20061;-64
2022/01/10 15:17:20;;;;;;;26.88;12.75;;;;;;;;;;6243306;28;20095;-62
2022/01/10 15:20:24;;;;;;;27.40;13.13;;;;;;;;;;6242295;28;20045;-63
2022/01/10 15:23:26;;;;;;;26.67;13.20;;;;;;;;;;6243465;28;20049;-63
2022/01/10 15:26:30;;;;;;;28.02;13.75;;;;;;;;;;6243655;28;20099;-64
2022/01/10 15:29:35;;;;;;;30.65;14.60;;;;;;;;;;6241677;28;20049;-64
2022/01/10 15:32:38;;;;;;;;;;;;;;;;;;6245048;28;20045;-64
2022/01/10 15:35:41;;;;;;;29.67;13.90;;;;;;;;;;6243816;28;19925;-65
2022/01/10 15:38:46;;;;;;;29.10;14.48;;;;;;;;;;6242873;28;20057;-63
2022/01/10 15:41:48;;;;;;;29.75;14.27;;;;;;;;;;6241717;28;20059;-63
2022/01/10 15:44:54;;;;;;;31.75;15.75;;;;;;;;;;6242873;28;20050;-63
2022/01/10 15:47:56;;;;;;;43.43;15.07;;;;;;;;;;6243245;28;20048;-63
2022/01/10 15:51:00;;;;;;;94.28;42.67;;;;;;;;;;6242710;28;20064;-63
2022/01/10 15:54:03;;;;;;;27.80;13.57;;;;;;;;;;6242653;28;20046;-64
2022/01/10 15:57:06;;;;;;;25.55;12.95;;;;;;;;;;6241403;28;20054;-64
2022/01/10 16:00:13;;;;;;;30.17;13.30;;;;;;;;;;6240997;28;20533;-63
2022/01/10 16:03:16;;;;;;;26.95;13.13;;;;;;;;;;6243085;28;20389;-64
2022/01/10 16:06:19;;;;;;;30.35;13.45;;;;;;;;;;6242168;28;20377;-63
2022/01/10 16:09:22;;;;;;;30.02;13.60;;;;;;;;;;6242554;28;20499;-63
2022/01/10 16:12:28;;;;;;;24.13;12.18;;;;;;;;;;6242651;28;20041;-64
2022/01/10 16:15:33;;;;;;;28.13;12.52;;;;;;;;;;6242582;28;20041;-64
2022/01/10 16:18:35;;;;;;;26.25;12.18;;;;;;;;;;6242555;28;20045;-63
2022/01/10 16:21:41;;;;;;;26.15;12.25;;;;;;;;;;6242033;28;20057;-65
2022/01/10 16:24:46;;;;;;;26.27;11.60;;;;;;;;;;6242721;28;20045;-65
2022/01/10 16:27:49;;;;;;;23.75;11.77;;;;;;;;;;6242313;28;20053;-63
2022/01/10 16:30:53;;;;;;;23.60;10.98;;;;;;;;;;6241793;28;20053;-65
2022/01/10 16:33:57;;;;;;;26.13;11.00;;;;;;;;;;6242122;28;20455;-65
2022/01/10 16:37:00;;;;;;;25.52;12.10;;;;;;;;;;6242332;28;20852;-63
2022/01/10 16:40:03;;;;;;;25.73;11.70;;;;;;;;;;6242109;28;20046;-64
2022/01/10 16:43:10;;;;;;;23.30;11.85;;;;;;;;;;6240282;28;20084;-63
2022/01/10 16:46:22;;;;;;;22.45;10.32;;;;;;;;;;6242332;28;20049;-63
2022/01/10 16:49:30;;;;;;;22.70;10.45;;;;;;;;;;6241950;28;20053;-65
2022/01/10 16:52:33;;;;;;;24.25;11.15;;;;;;;;;;6241852;28;20048;-63
2022/01/10 16:55:36;;;;;;;23.85;10.82;;;;;;;;;;6242067;28;20046;-63
2022/01/10 16:58:40;;;;;;;25.08;11.80;;;;;;;;;;6242272;28;20053;-63
2022/01/10 17:01:44;;;;;;;23.98;10.60;;;;;;;;;;6240863;28;20045;-64
2022/01/10 17:04:48;;;;;;;26.33;11.00;;;;;;;;;;6241432;28;20515;-63
2022/01/10 17:07:50;;;;;;;24.20;11.13;;;;;;;;;;6241932;28;20047;-64
2022/01/10 17:10:54;;;;;;;23.10;10.82;;;;;;;;;;6242046;28;20049;-64
2022/01/10 17:14:00;;;;;;;25.77;10.68;;;;;;;;;;6240106;28;20057;-63
2022/01/10 17:17:05;;;;;;;21.85;9.93;;;;;;;;;;6241950;28;20045;-64
2022/01/10 17:20:10;;;;;;;28.55;12.07;;;;;;;;;;6245896;28;20056;-64
2022/01/10 17:23:16;;;;;;;23.00;10.43;;;;;;;;;;6245139;28;20049;-64
2022/01/10 17:26:19;;;;;;;23.55;10.20;;;;;;;;;;6245836;28;20048;-65
2022/01/10 17:29:22;;;;;;;22.95;10.38;;;;;;;;;;6252826;28;20060;-65
2022/01/10 17:32:26;;;;;;;27.38;12.00;;;;;;;;;;6271204;28;20049;-65
2022/01/10 17:35:29;;;;;;;30.73;14.35;;;;;;;;;;6270711;28;20045;-66
2022/01/10 17:38:35;;;;;;;22.35;11.85;;;;;;;;;;6271272;28;20127;-67
2022/01/10 17:41:38;;;;;;;22.95;10.20;;;;;;;;;;6252740;28;20061;-67
2022/01/10 17:44:40;;;;;;;22.88;10.60;;;;;;;;;;6253031;28;20041;-65
2022/01/10 17:47:45;;;;;;;24.15;10.98;;;;;;;;;;6260475;28;20052;-68
2022/01/10 17:50:51;;;;;;;27.13;11.70;;;;;;;;;;6255825;28;20041;-66
2022/01/10 17:53:56;;;;;;;22.88;11.13;;;;;;;;;;6269819;28;20075;-70
2022/01/10 17:57:01;;;;;;;24.23;11.30;;;;;;;;;;6245591;28;20041;-66
2022/01/10 18:00:05;;;;;;;27.30;12.15;;;;;;;;;;6246077;28;20049;-67
2022/01/10 18:03:15;;;;;;;28.00;13.10;;;;;;;;;;6265067;28;20502;-67